Time;durP1;ratioP1;P1;durP2;ratioP2;P2;SDS_P1;SDS_P2;PMS_P1;PMS_P2;Temp;Humidity;BMP_temperature;BMP_pressure;BME280_temperature;BME280_humidity;BME280_pressure;Samples;Min_cycle;Max_cycle;Signal;HPM_P1;HPM_P2
2021/05/02 00:00:32;;;;;;;10.93;6.78;;;;;;;19.74;31.38;101843.47;5033597;28;20029;-79
2021/05/02 00:03:00;;;;;;;11.48;6.90;;;;;;;19.66;31.51;101839.66;5034942;28;20033;-93
2021/05/02 00:05:28;;;;;;;11.73;6.53;;;;;;;19.60;31.48;101845.78;5033379;28;20052;-93
2021/05/02 00:07:55;;;;;;;11.95;7.38;;;;;;;19.56;31.39;101848.41;5033419;28;20044;-94
2021/05/02 00:10:22;;;;;;;12.35;7.47;;;;;;;19.50;31.24;101849.00;5034686;28;20029;-82
2021/05/02 00:12:49;;;;;;;9.40;6.60;;;;;;;19.53;31.03;101843.56;5033617;28;20503;-94
2021/05/02 00:15:17;;;;;;;11.15;7.25;;;;;;;19.53;31.23;101845.53;5034768;28;20029;-94
2021/05/02 00:17:45;;;;;;;12.35;6.55;;;;;;;19.48;31.36;101841.03;5033437;28;20120;-93
2021/05/02 00:20:13;;;;;;;13.07;7.25;;;;;;;19.38;31.30;101842.28;5034616;28;20061;-82
2021/05/02 00:22:44;;;;;;;8.27;6.70;;;;;;;19.32;31.36;101840.09;5033037;28;20420;-82
2021/05/02 00:25:10;;;;;;;13.13;7.63;;;;;;;19.26;31.23;101833.97;5034404;28;20122;-95
2021/05/02 00:27:36;;;;;;;12.00;7.53;;;;;;;19.20;31.56;101831.78;5034023;28;20036;-87
2021/05/02 00:30:03;;;;;;;7.22;6.22;;;;;;;19.13;31.50;101829.59;5034305;28;20030;-87
2021/05/02 00:32:30;;;;;;;12.35;8.07;;;;;;;18.99;31.71;101832.69;5034161;28;20033;-93
2021/05/02 00:34:57;;;;;;;9.77;6.68;;;;;;;18.94;31.64;101826.56;5034145;28;20511;-93
2021/05/02 00:37:23;;;;;;;8.55;6.35;;;;;;;18.88;31.93;101827.91;5033834;28;20033;-82
2021/05/02 00:39:49;;;;;;;12.98;7.43;;;;;;;18.75;32.00;101827.09;5032843;28;20043;-82
2021/05/02 00:42:24;;;;;;;8.45;7.00;;;;;;;18.67;32.14;101826.03;5034031;28;20519;-92
2021/05/02 00:45:10;;;;;;;10.20;7.40;;;;;;;18.63;32.25;101822.28;5033782;28;20029;-93
2021/05/02 00:47:38;;;;;;;9.38;7.10;;;;;;;18.61;32.27;101819.06;5033216;28;20045;-81
2021/05/02 00:50:09;;;;;;;10.23;7.18;;;;;;;18.63;32.02;101821.50;5033487;28;20083;-94
2021/05/02 00:53:04;;;;;;;9.88;7.00;;;;;;;18.56;32.11;101822.84;5033713;28;20412;-93
2021/05/02 00:55:52;;;;;;;10.52;8.07;;;;;;;18.50;32.17;101818.66;5034118;28;20040;-81
2021/05/02 00:58:39;;;;;;;10.48;8.30;;;;;;;18.50;31.90;101821.44;5032484;28;20384;-94
2021/05/02 01:01:05;;;;;;;9.18;7.80;;;;;;;18.58;31.81;101822.50;5033650;28;20029;-81
2021/05/02 01:03:33;;;;;;;9.40;7.68;;;;;;;18.43;31.94;101821.19;5033842;28;20026;-93
2021/05/02 01:06:06;;;;;;;10.15;8.00;;;;;;;18.42;31.95;101824.28;5032460;28;20060;-94
2021/05/02 01:08:35;;;;;;;15.02;8.50;;;;;;;18.34;31.90;101825.19;5033723;28;20105;-92
2021/05/02 01:11:04;;;;;;;11.05;8.20;;;;;;;18.31;32.05;101821.16;5033367;28;20026;-95
2021/05/02 01:13:35;;;;;;;12.57;8.82;;;;;;;18.26;31.85;101824.91;5032765;28;20029;-91
2021/05/02 01:16:03;;;;;;;12.13;8.18;;;;;;;18.21;31.99;101819.63;5032309;28;20037;-93
2021/05/02 01:18:29;;;;;;;10.27;7.30;;;;;;;18.12;31.94;101818.84;5032303;28;20458;-80
2021/05/02 01:20:57;;;;;;;9.52;7.63;;;;;;;18.10;32.05;101823.09;5033141;28;20105;-82
2021/05/02 01:23:23;;;;;;;11.93;7.53;;;;;;;17.97;32.05;101817.50;5032374;28;20075;-81
2021/05/02 01:25:54;;;;;;;11.13;8.57;;;;;;;17.89;32.28;101814.81;5033433;28;20048;-82
2021/05/02 01:28:20;;;;;;;12.43;8.45;;;;;;;17.90;32.03;101821.94;5033430;28;20028;-90
2021/05/02 01:30:47;;;;;;;9.38;8.43;;;;;;;17.85;31.72;101822.16;5033414;28;20026;-80
2021/05/02 01:33:13;;;;;;;11.88;8.30;;;;;;;17.79;32.17;101820.75;5033193;28;20057;-81
2021/05/02 01:35:39;;;;;;;9.50;8.55;;;;;;;17.68;32.45;101821.13;5033383;28;20030;-81
2021/05/02 01:38:05;;;;;;;9.82;8.20;;;;;;;17.51;32.36;101821.19;5033225;28;20036;-93
2021/05/02 01:40:30;;;;;;;11.13;8.20;;;;;;;17.41;32.63;101825.16;5033132;28;20032;-92
2021/05/02 01:42:56;;;;;;;14.43;9.55;;;;;;;17.41;32.49;101821.59;5033456;28;20030;-82
2021/05/02 01:45:22;;;;;;;11.60;9.18;;;;;;;17.36;32.51;101821.75;5033119;28;20495;-82
2021/05/02 01:47:59;;;;;;;10.68;9.02;;;;;;;17.24;32.78;101816.16;5032497;28;20040;-95
2021/05/02 01:50:27;;;;;;;13.30;9.25;;;;;;;17.16;32.80;101826.91;5015833;28;20036;-88
2021/05/02 01:52:54;;;;;;;15.75;10.18;;;;;;;17.17;32.85;101817.47;5031995;28;20029;-95
2021/05/02 01:55:21;;;;;;;11.00;9.70;;;;;;;17.15;32.85;101819.78;5032341;28;20022;-81
2021/05/02 01:57:49;;;;;;;13.40;10.00;;;;;;;17.13;32.90;101823.97;5033114;28;20367;-91
2021/05/02 02:00:21;;;;;;;12.25;10.10;;;;;;;16.99;33.28;101815.91;5033292;28;20025;-86
2021/05/02 02:02:47;;;;;;;14.32;10.63;;;;;;;17.04;33.19;101818.50;5033624;28;20029;-81
2021/05/02 02:05:13;;;;;;;15.15;11.35;;;;;;;17.03;33.53;101827.13;5033382;28;20096;-94
2021/05/02 02:07:40;;;;;;;16.85;12.10;;;;;;;16.97;33.30;101818.19;5033124;28;20464;-93
2021/05/02 02:10:06;;;;;;;14.90;11.90;;;;;;;16.98;33.32;101822.56;5033175;28;20053;-90
2021/05/02 02:12:32;;;;;;;17.67;12.65;;;;;;;16.91;33.77;101822.28;5032644;28;20503;-93
2021/05/02 02:14:57;;;;;;;16.25;11.27;;;;;;;16.87;33.81;101816.63;5033375;28;20026;-81
2021/05/02 02:17:23;;;;;;;15.90;11.85;;;;;;;16.85;33.92;101821.66;5033495;28;20408;-93
2021/05/02 02:19:49;;;;;;;14.23;11.50;;;;;;;16.83;33.80;101823.91;5019306;28;20030;-82
2021/05/02 02:22:17;;;;;;;14.20;10.48;;;;;;;16.74;33.75;101823.13;5036688;28;20029;-93
2021/05/02 02:24:56;;;;;;;16.58;11.80;;;;;;;16.69;33.91;101823.31;5035073;28;20025;-81
2021/05/02 02:27:27;;;;;;;14.80;11.85;;;;;;;16.68;33.99;101826.38;5036696;28;20471;-93
2021/05/02 02:29:57;;;;;;;17.45;11.88;;;;;;;16.58;34.13;101827.53;5036622;28;20373;-95
2021/05/02 02:32:23;;;;;;;;;;;;;;;16.51;34.17;101832.72;5019947;28;20044;-93
2021/05/02 02:34:49;;;;;;;16.63;11.85;;;;;;;16.57;34.02;101832.22;5036452;28;19917;-92
2021/05/02 02:37:21;;;;;;;13.38;11.95;;;;;;;16.51;34.59;101829.97;5035294;28;20038;-93
2021/05/02 02:39:49;;;;;;;14.23;12.07;;;;;;;16.50;34.18;101825.59;5035493;28;20029;-92
2021/05/02 02:42:16;;;;;;;17.60;12.43;;;;;;;16.51;34.09;101830.78;5035430;28;20025;-81
2021/05/02 02:44:54;;;;;;;14.40;12.27;;;;;;;16.41;34.20;101827.56;5036487;28;20032;-93
2021/05/02 02:47:21;;;;;;;16.73;11.48;;;;;;;16.41;34.47;101833.88;5035336;28;20064;-88
2021/05/02 02:49:50;;;;;;;16.35;13.23;;;;;;;16.31;34.60;101828.69;5036406;28;20025;-92
2021/05/02 02:52:20;;;;;;;15.68;12.40;;;;;;;16.21;34.84;101834.53;5035820;28;20052;-82
2021/05/02 02:55:00;;;;;;;14.32;12.63;;;;;;;16.17;34.80;101834.38;5035367;28;20770;-82
2021/05/02 02:57:30;;;;;;;13.45;12.10;;;;;;;16.16;34.71;101838.25;5035545;28;20502;-80
2021/05/02 02:59:58;;;;;;;14.60;11.60;;;;;;;16.14;34.60;101839.72;5035321;28;20392;-82
2021/05/02 03:02:25;;;;;;;15.68;13.45;;;;;;;16.09;34.79;101835.16;5035933;28;20472;-86
2021/05/02 03:04:54;;;;;;;16.52;12.43;;;;;;;15.99;34.76;101836.28;5036072;28;20053;-81
2021/05/02 03:07:23;;;;;;;15.35;12.27;;;;;;;16.01;34.93;101834.03;5034633;28;20039;-81
2021/05/02 03:09:49;;;;;;;15.82;12.93;;;;;;;16.00;34.84;101839.88;5035920;28;20033;-90
2021/05/02 03:12:22;;;;;;;14.40;12.27;;;;;;;15.97;35.14;101835.81;5035813;28;20030;-80
2021/05/02 03:14:52;;;;;;;14.90;12.20;;;;;;;15.91;35.13;101839.88;5035469;28;20034;-81
2021/05/02 03:17:21;;;;;;;17.02;13.60;;;;;;;15.97;34.92;101840.53;5034299;28;20030;-89
2021/05/02 03:19:52;;;;;;;16.05;12.93;;;;;;;15.98;35.17;101850.41;5034374;28;20033;-92
2021/05/02 03:22:42;;;;;;;15.65;13.85;;;;;;;15.95;35.28;101846.38;5017939;28;20044;-94
2021/05/02 03:25:12;;;;;;;18.88;13.80;;;;;;;15.98;34.99;101847.66;5035358;28;20029;-88
2021/05/02 03:27:46;;;;;;;16.50;13.18;;;;;;;15.99;34.99;101841.81;5033998;28;20079;-81
2021/05/02 03:30:13;;;;;;;13.25;11.85;;;;;;;15.98;35.25;101844.91;5035406;28;20022;-93
2021/05/02 03:32:47;;;;;;;16.20;13.73;;;;;;;15.92;35.34;101847.00;5035299;28;20085;-93
2021/05/02 03:35:15;;;;;;;14.18;12.52;;;;;;;15.87;35.36;101849.09;5035411;28;20391;-83
2021/05/02 03:37:48;;;;;;;16.05;12.32;;;;;;;15.82;35.46;101848.13;5033299;28;20025;-92
2021/05/02 03:40:14;;;;;;;17.10;13.50;;;;;;;15.81;35.39;101845.69;5035458;28;20083;-92
2021/05/02 03:42:40;;;;;;;18.05;13.13;;;;;;;15.76;35.54;101846.66;5034488;28;20033;-81
2021/05/02 03:45:06;;;;;;;16.10;13.13;;;;;;;15.75;35.43;101856.03;5034018;28;20120;-81
2021/05/02 03:47:31;;;;;;;14.77;13.07;;;;;;;15.60;35.52;101858.41;5033963;28;20034;-92
2021/05/02 03:49:57;;;;;;;15.10;12.80;;;;;;;15.59;35.52;101857.59;5035179;28;20040;-85
2021/05/02 03:52:22;;;;;;;15.68;13.88;;;;;;;15.55;35.65;101853.84;5034691;28;20045;-84
2021/05/02 03:54:54;;;;;;;15.45;12.63;;;;;;;15.50;35.64;101854.00;5033990;28;20028;-90
2021/05/02 03:57:20;;;;;;;13.80;12.05;;;;;;;15.44;35.78;101856.09;5034648;28;20030;-91
2021/05/02 03:59:46;;;;;;;17.90;12.85;;;;;;;15.45;35.73;101854.97;5034799;28;20041;-80
2021/05/02 04:02:14;;;;;;;14.55;13.05;;;;;;;15.40;35.83;101855.09;5034657;28;20036;-89
2021/05/02 04:04:41;;;;;;;18.73;12.90;;;;;;;15.37;35.98;101858.50;5033182;28;20113;-89
2021/05/02 04:07:12;;;;;;;16.80;13.05;;;;;;;15.46;35.55;101862.09;5033087;28;20031;-86
2021/05/02 04:09:42;;;;;;;15.77;13.10;;;;;;;15.37;35.63;101857.69;5032934;28;20037;-87
2021/05/02 04:12:08;;;;;;;;;;;;;;;15.26;35.75;101855.22;5034109;28;20464;-80
2021/05/02 04:14:34;;;;;;;14.85;12.27;;;;;;;15.34;35.56;101859.13;5033496;28;20268;-87
2021/05/02 04:17:11;;;;;;;19.10;13.45;;;;;;;15.34;35.62;101861.06;5034374;28;20029;-84
2021/05/02 04:19:39;;;;;;;13.63;12.18;;;;;;;15.38;35.41;101857.34;5034334;28;20066;-88
2021/05/02 04:22:06;;;;;;;14.57;12.73;;;;;;;15.36;35.33;101854.13;5034092;28;20430;-81
2021/05/02 04:24:32;;;;;;;14.82;13.30;;;;;;;15.29;35.45;101859.28;5034074;28;20014;-80
2021/05/02 04:26:58;;;;;;;14.52;13.05;;;;;;;15.36;35.32;101853.31;5033019;28;20071;-80
2021/05/02 04:29:25;;;;;;;20.10;14.30;;;;;;;15.37;35.29;101860.44;5033019;28;20032;-88
2021/05/02 04:31:52;;;;;;;15.60;13.93;;;;;;;15.27;35.43;101859.59;5032769;28;20029;-88
2021/05/02 04:34:19;;;;;;;16.17;12.80;;;;;;;15.29;35.42;101863.97;5032713;28;20168;-81
2021/05/02 04:36:45;;;;;;;14.20;12.70;;;;;;;15.26;35.12;101860.72;5032892;28;20032;-82
2021/05/02 04:39:11;;;;;;;15.75;13.25;;;;;;;15.24;35.39;101857.47;5032659;28;20094;-82
2021/05/02 04:41:37;;;;;;;19.13;12.90;;;;;;;15.19;35.36;101863.13;5032755;28;20029;-88
2021/05/02 04:44:03;;;;;;;14.57;13.07;;;;;;;15.22;35.19;101861.66;5033236;28;20034;-81
2021/05/02 04:46:28;;;;;;;14.57;13.00;;;;;;;15.11;35.18;101863.88;5033414;28;20076;-89
2021/05/02 04:48:54;;;;;;;26.70;15.95;;;;;;;15.08;35.53;101866.44;5033097;28;20026;-90
2021/05/02 04:51:21;;;;;;;18.95;13.15;;;;;;;15.11;35.57;101865.81;5032527;28;20132;-82
2021/05/02 04:53:47;;;;;;;16.50;13.20;;;;;;;15.06;35.56;101866.78;5032971;28;20055;-81
2021/05/02 04:56:13;;;;;;;17.02;13.05;;;;;;;15.07;35.54;101870.34;5033756;28;20448;-88
2021/05/02 04:58:38;;;;;;;16.02;13.13;;;;;;;15.10;35.39;101876.00;5033589;28;20068;-83
2021/05/02 05:01:05;;;;;;;16.40;13.40;;;;;;;15.03;35.99;101872.91;5033604;28;20037;-89
2021/05/02 05:03:32;;;;;;;15.57;13.43;;;;;;;15.05;35.51;101875.34;5032762;28;20035;-89
2021/05/02 05:05:57;;;;;;;17.27;13.65;;;;;;;15.06;35.50;101877.78;5033341;28;20026;-87
2021/05/02 05:08:23;;;;;;;15.50;12.63;;;;;;;15.08;35.68;101880.22;5033268;28;20086;-82
2021/05/02 05:10:49;;;;;;;13.27;11.52;;;;;;;15.05;35.83;101878.09;5031990;28;20034;-88
2021/05/02 05:13:14;;;;;;;15.77;13.05;;;;;;;15.08;35.62;101882.97;5033628;28;20529;-83
2021/05/02 05:15:40;;;;;;;21.50;13.52;;;;;;;14.98;35.96;101882.13;5032549;28;20498;-88
2021/05/02 05:18:06;;;;;;;16.58;12.25;;;;;;;15.05;35.90;101887.19;5033287;28;20079;-81
2021/05/02 05:20:31;;;;;;;15.85;13.13;;;;;;;15.12;35.96;101886.72;5032501;28;20462;-82
2021/05/02 05:22:57;;;;;;;13.18;11.82;;;;;;;15.08;36.09;101893.97;5033282;28;20029;-89
2021/05/02 05:25:22;;;;;;;14.00;12.50;;;;;;;15.18;35.93;101891.75;5033378;28;20584;-89
2021/05/02 05:27:48;;;;;;;15.38;13.05;;;;;;;15.25;35.88;101894.88;5031926;28;20061;-87
2021/05/02 05:30:14;;;;;;;14.93;13.27;;;;;;;15.40;35.90;101893.66;5033474;28;20022;-79
2021/05/02 05:32:40;;;;;;;13.77;12.38;;;;;;;15.54;35.90;101897.09;5034127;28;20510;-80
2021/05/02 05:35:06;;;;;;;14.93;11.73;;;;;;;15.68;35.86;101901.72;5033438;28;20100;-78
2021/05/02 05:37:32;;;;;;;14.23;12.73;;;;;;;15.93;35.80;101895.47;5031901;28;20029;-88
2021/05/02 05:39:57;;;;;;;16.60;11.38;;;;;;;16.05;35.69;101895.66;5033922;28;20044;-75
2021/05/02 05:42:23;;;;;;;12.23;10.75;;;;;;;16.21;35.41;101895.19;5033862;28;20056;-91
2021/05/02 05:44:49;;;;;;;14.18;11.98;;;;;;;16.32;35.38;101899.25;5033637;28;20037;-88
2021/05/02 05:47:14;;;;;;;12.23;10.63;;;;;;;16.39;35.22;101902.34;5033323;28;20464;-91
2021/05/02 05:49:41;;;;;;;12.82;10.80;;;;;;;16.25;35.47;101901.69;5034692;28;20061;-91
2021/05/02 05:52:12;;;;;;;13.30;11.20;;;;;;;16.30;35.61;101898.75;5034534;28;20041;-93
2021/05/02 05:54:38;;;;;;;15.20;10.90;;;;;;;16.29;35.57;101900.72;5039305;28;20029;-85
2021/05/02 05:57:04;;;;;;;15.02;11.50;;;;;;;16.37;35.32;101894.38;5036780;28;20110;-86
2021/05/02 05:59:30;;;;;;;14.70;11.07;;;;;;;16.36;35.49;101897.47;5037056;28;20061;-90
2021/05/02 06:01:55;;;;;;;12.13;10.57;;;;;;;16.27;35.71;101907.69;5036635;28;20384;-86
2021/05/02 06:04:22;;;;;;;13.25;11.25;;;;;;;16.33;35.57;101900.91;5036862;28;20060;-78
2021/05/02 06:06:47;;;;;;;14.30;11.55;;;;;;;16.40;35.62;101903.16;5038171;28;20034;-81
2021/05/02 06:09:13;;;;;;;12.85;11.07;;;;;;;16.44;35.77;101902.19;5039485;28;20022;-80
2021/05/02 06:11:39;;;;;;;16.33;11.95;;;;;;;16.58;35.86;101905.59;5043194;28;20025;-80
2021/05/02 06:14:06;;;;;;;11.90;10.63;;;;;;;16.68;35.83;101909.16;5043684;28;20076;-94
2021/05/02 06:16:31;;;;;;;12.75;11.45;;;;;;;16.81;35.74;101902.69;5037937;28;20026;-79
2021/05/02 06:18:59;;;;;;;13.98;12.38;;;;;;;16.89;35.58;101910.13;5036839;28;20586;-80
2021/05/02 06:21:26;;;;;;;12.82;11.25;;;;;;;16.79;35.79;101910.47;5035591;28;20030;-78
2021/05/02 06:23:54;;;;;;;18.05;12.30;;;;;;;16.72;36.05;101910.97;5036057;28;20136;-84
2021/05/02 06:26:20;;;;;;;16.35;11.40;;;;;;;16.80;36.31;101914.88;5017920;28;20049;-79
2021/05/02 06:28:49;;;;;;;11.73;10.30;;;;;;;16.86;36.27;101911.59;5034947;28;20470;-78
2021/05/02 06:31:15;;;;;;;13.77;12.13;;;;;;;16.75;36.67;101913.06;5035196;28;20617;-78
2021/05/02 06:33:41;;;;;;;16.95;12.57;;;;;;;17.00;36.11;101914.16;5035257;28;20068;-93
2021/05/02 06:36:07;;;;;;;12.75;11.18;;;;;;;16.95;36.46;101917.13;5035741;28;20104;-81
2021/05/02 06:38:33;;;;;;;14.05;12.07;;;;;;;17.20;35.98;101910.72;5035109;28;20117;-80
2021/05/02 06:40:59;;;;;;;13.82;11.65;;;;;;;17.43;35.96;101913.22;5036765;28;20037;-94
2021/05/02 06:43:25;;;;;;;16.50;12.48;;;;;;;17.55;35.82;101918.06;5034400;28;20025;-81
2021/05/02 06:45:50;;;;;;;16.60;11.45;;;;;;;17.32;36.49;101910.03;5034806;28;20104;-79
2021/05/02 06:48:16;;;;;;;13.00;10.93;;;;;;;16.81;37.69;101916.47;5036198;28;20037;-80
2021/05/02 06:50:42;;;;;;;14.05;11.60;;;;;;;17.54;35.93;101920.03;5035415;28;20030;-80
2021/05/02 06:53:08;;;;;;;14.45;11.73;;;;;;;17.79;36.02;101917.50;5035230;28;20026;-79
2021/05/02 06:55:34;;;;;;;16.35;11.82;;;;;;;17.95;35.70;101913.00;5034390;28;20090;-79
2021/05/02 06:58:00;;;;;;;14.05;12.45;;;;;;;18.12;35.27;101921.19;5036311;28;20025;-93
2021/05/02 07:00:27;;;;;;;12.88;11.43;;;;;;;18.12;35.26;101925.91;5035851;28;20083;-92
2021/05/02 07:02:52;;;;;;;13.40;12.00;;;;;;;18.02;34.85;101921.59;5036355;28;20109;-79
2021/05/02 07:05:18;;;;;;;13.85;11.70;;;;;;;17.74;35.49;101922.06;5038702;28;20085;-81
2021/05/02 07:07:44;;;;;;;13.35;11.95;;;;;;;18.00;35.02;101926.66;5035074;28;20030;-81
2021/05/02 07:10:10;;;;;;;17.20;12.93;;;;;;;17.86;35.37;101920.56;5034312;28;20025;-84
2021/05/02 07:12:36;;;;;;;21.17;12.98;;;;;;;17.88;35.19;101932.88;5034335;28;20033;-79
2021/05/02 07:15:02;;;;;;;15.93;13.20;;;;;;;18.05;35.03;101922.88;5033871;28;20098;-79
2021/05/02 07:17:30;;;;;;;13.43;12.07;;;;;;;18.12;35.23;101929.47;5032143;28;20154;-80
2021/05/02 07:19:56;;;;;;;14.15;12.30;;;;;;;18.17;35.39;101931.25;5033868;28;20106;-78
2021/05/02 07:22:23;;;;;;;13.63;12.30;;;;;;;18.25;35.57;101933.16;5034348;28;20476;-79
2021/05/02 07:24:49;;;;;;;13.13;11.25;;;;;;;18.40;35.34;101926.22;5034779;28;20063;-86
2021/05/02 07:27:15;;;;;;;16.05;12.07;;;;;;;18.66;35.02;101926.00;5021381;28;20188;-78
2021/05/02 07:29:41;;;;;;;16.60;13.30;;;;;;;18.91;34.58;101922.22;5049213;28;20035;-81
2021/05/02 07:32:06;;;;;;;14.55;12.55;;;;;;;19.14;34.20;101914.31;5016441;28;20038;-80
2021/05/02 07:34:32;;;;;;;14.55;11.55;;;;;;;19.22;34.23;101915.38;5015164;28;20120;-80
2021/05/02 07:36:58;;;;;;;15.10;11.52;;;;;;;19.25;34.06;101921.03;5011784;28;20033;-81
2021/05/02 07:39:23;;;;;;;13.93;11.10;;;;;;;19.60;33.45;101926.19;5015686;28;20091;-80
2021/05/02 07:41:49;;;;;;;17.00;11.05;;;;;;;19.76;33.42;101918.78;5015583;28;20018;-80
2021/05/02 07:44:15;;;;;;;14.18;11.43;;;;;;;19.83;33.04;101913.47;5018095;28;20029;-80
2021/05/02 07:46:40;;;;;;;19.33;11.90;;;;;;;20.10;32.62;101920.28;5020706;28;20021;-81
2021/05/02 07:49:06;;;;;;;16.98;11.57;;;;;;;20.19;32.50;101920.16;5013759;28;20032;-77
2021/05/02 07:51:33;;;;;;;13.35;10.90;;;;;;;20.24;32.40;101911.56;5016268;28;20069;-90
2021/05/02 07:53:59;;;;;;;13.93;11.23;;;;;;;20.43;32.18;101917.31;5012637;28;20541;-79
2021/05/02 07:56:25;;;;;;;14.13;11.82;;;;;;;20.75;31.84;101914.66;5016338;28;20072;-81
2021/05/02 07:58:50;;;;;;;16.23;11.25;;;;;;;20.84;31.99;101908.94;5011757;28;20624;-85
2021/05/02 08:01:17;;;;;;;18.58;11.38;;;;;;;20.99;31.75;101914.53;5018003;28;20037;-93
2021/05/02 08:03:42;;;;;;;14.25;11.18;;;;;;;21.00;31.53;101910.59;5018967;28;20479;-78
2021/05/02 08:06:08;;;;;;;14.60;10.40;;;;;;;21.30;31.17;101911.03;5032864;28;20029;-89
2021/05/02 08:08:33;;;;;;;15.48;10.35;;;;;;;21.43;30.96;101903.41;5024655;28;20111;-86
2021/05/02 08:10:59;;;;;;;16.65;11.48;;;;;;;21.66;30.75;101909.13;5024389;28;20030;-81
2021/05/02 08:13:24;;;;;;;15.35;10.82;;;;;;;21.52;30.58;101904.03;5023505;28;20021;-81
2021/05/02 08:15:50;;;;;;;12.88;9.27;;;;;;;21.72;30.15;101902.13;5021031;28;20037;-86
2021/05/02 08:18:16;;;;;;;14.02;9.52;;;;;;;21.77;29.94;101901.06;5029800;28;20484;-88
2021/05/02 08:20:41;;;;;;;11.05;9.80;;;;;;;21.76;29.82;101899.44;5020588;28;20026;-81
2021/05/02 08:23:08;;;;;;;13.20;9.93;;;;;;;21.83;29.41;101899.59;5032641;28;20025;-83
2021/05/02 08:25:34;;;;;;;13.65;9.68;;;;;;;21.81;29.66;101901.94;5036477;28;20021;-85
2021/05/02 08:27:59;;;;;;;9.82;8.82;;;;;;;21.97;29.51;101902.72;5033857;28;20502;-80
2021/05/02 08:30:25;;;;;;;9.77;8.70;;;;;;;21.98;29.70;101904.31;5035477;28;20039;-80
2021/05/02 08:32:51;;;;;;;15.80;10.57;;;;;;;22.05;29.72;101912.03;5050740;28;20112;-79
2021/05/02 08:35:16;;;;;;;17.17;12.07;;;;;;;22.35;29.35;101906.75;5030579;28;20483;-78
2021/05/02 08:37:42;;;;;;;13.65;10.45;;;;;;;22.30;29.44;101909.84;5013425;28;20121;-84
2021/05/02 08:40:09;;;;;;;12.60;10.48;;;;;;;22.45;29.21;101911.78;5016481;28;20030;-78
2021/05/02 08:42:35;;;;;;;15.57;10.80;;;;;;;22.42;29.46;101913.28;5015454;28;20022;-88
2021/05/02 08:45:02;;;;;;;11.85;10.65;;;;;;;22.47;29.37;101914.97;5015054;28;20057;-77
2021/05/02 08:47:35;;;;;;;14.48;10.82;;;;;;;22.62;29.30;101916.88;5013621;28;20405;-77
2021/05/02 08:50:04;;;;;;;10.23;9.23;;;;;;;22.90;28.96;101915.88;5012761;28;20109;-77
2021/05/02 08:52:30;;;;;;;10.77;9.65;;;;;;;23.15;28.67;101910.75;5011631;28;20077;-77
2021/05/02 08:54:55;;;;;;;12.38;9.68;;;;;;;23.16;28.29;101901.22;5011770;28;20057;-77
2021/05/02 08:57:21;;;;;;;20.35;9.93;;;;;;;23.34;28.47;101916.25;5011577;28;20056;-78
2021/05/02 08:59:47;;;;;;;11.60;9.35;;;;;;;23.53;27.99;101915.41;5011359;28;20572;-78
2021/05/02 09:02:26;;;;;;;11.30;8.73;;;;;;;23.80;27.68;101914.28;5011408;28;20028;-78
2021/05/02 09:04:54;;;;;;;15.18;9.38;;;;;;;23.86;27.77;101920.34;5011911;28;20105;-78
2021/05/02 09:07:20;;;;;;;10.52;8.23;;;;;;;23.84;27.47;101924.69;5012969;28;20149;-84
2021/05/02 09:09:46;;;;;;;11.27;9.38;;;;;;;23.90;27.23;101917.63;5013234;28;20065;-77
2021/05/02 09:12:25;;;;;;;11.13;9.05;;;;;;;23.85;26.98;101918.72;5013054;28;20108;-77
2021/05/02 09:14:52;;;;;;;10.23;9.13;;;;;;;23.86;27.16;101919.53;5013253;28;20022;-78
2021/05/02 09:17:29;;;;;;;10.43;8.70;;;;;;;23.79;27.36;101917.44;5012891;28;20026;-77
2021/05/02 09:19:58;;;;;;;10.88;8.88;;;;;;;23.56;27.38;101920.22;5013024;28;20034;-77
2021/05/02 09:22:25;;;;;;;11.95;8.30;;;;;;;23.44;27.71;101920.44;5013011;28;20026;-78
2021/05/02 09:25:00;;;;;;;12.55;8.90;;;;;;;23.48;28.12;101924.06;5013240;28;20428;-78
2021/05/02 09:27:26;;;;;;;15.60;10.32;;;;;;;23.38;28.13;101921.91;5012902;28;20034;-82
2021/05/02 09:29:53;;;;;;;38.05;12.30;;;;;;;23.58;27.42;101923.47;5012886;28;20029;-78
2021/05/02 09:32:22;;;;;;;14.05;9.75;;;;;;;23.62;27.47;101924.34;5011908;28;20469;-78
2021/05/02 09:34:51;;;;;;;11.75;10.13;;;;;;;23.74;27.06;101918.56;5013055;28;20037;-78
2021/05/02 09:37:17;;;;;;;12.30;10.27;;;;;;;23.99;27.15;101920.94;5012895;28;20034;-78
2021/05/02 09:39:49;;;;;;;11.60;10.23;;;;;;;23.98;27.08;101919.31;5012901;28;20037;-78
2021/05/02 09:42:24;;;;;;;17.52;10.90;;;;;;;23.90;27.15;101923.19;5012847;28;20108;-78
2021/05/02 09:44:57;;;;;;;11.80;9.75;;;;;;;24.03;27.23;101921.78;5013151;28;20025;-78
2021/05/02 09:47:31;;;;;;;10.70;8.93;;;;;;;23.86;27.21;101925.13;5012909;28;20498;-78
2021/05/02 09:50:04;;;;;;;16.70;10.20;;;;;;;23.93;27.04;101919.63;5013242;28;20029;-78
2021/05/02 09:52:40;;;;;;;12.80;9.25;;;;;;;23.99;27.20;101918.94;5012584;28;20462;-92
2021/05/02 09:55:20;;;;;;;15.25;8.73;;;;;;;24.01;26.91;101921.34;5012823;28;20072;-78
2021/05/02 09:58:08;;;;;;;8.65;7.72;;;;;;;24.12;26.57;101918.72;5012639;28;20507;-78
2021/05/02 10:00:42;;;;;;;10.65;9.10;;;;;;;24.29;26.51;101909.78;5011892;28;20453;-78
2021/05/02 10:03:16;;;;;;;9.30;8.07;;;;;;;24.57;26.80;101923.34;5012967;28;20061;-78
2021/05/02 10:06:11;;;;;;;20.95;9.35;;;;;;;24.66;26.42;101923.06;5012898;28;20030;-79
2021/05/02 10:08:39;;;;;;;13.70;9.32;;;;;;;24.68;26.17;101929.06;5003694;28;20488;-80
2021/05/02 10:11:11;;;;;;;11.45;8.40;;;;;;;24.48;26.46;101920.03;5012789;28;20034;-79
2021/05/02 10:13:41;;;;;;;12.63;8.40;;;;;;;24.70;26.44;101918.28;5011325;28;20053;-92
2021/05/02 10:16:07;;;;;;;10.30;8.40;;;;;;;24.62;26.10;101914.63;5012481;28;20111;-79
2021/05/02 10:18:33;;;;;;;18.67;10.30;;;;;;;24.39;26.86;101909.16;5012555;28;20030;-80
2021/05/02 10:20:59;;;;;;;8.85;7.30;;;;;;;24.23;26.63;101909.31;5012282;28;20065;-79
2021/05/02 10:23:25;;;;;;;12.45;8.38;;;;;;;24.45;26.66;101906.81;5012262;28;20018;-80
2021/05/02 10:25:55;;;;;;;12.80;8.60;;;;;;;24.23;26.64;101908.50;5015845;28;20060;-79
2021/05/02 10:28:26;;;;;;;15.05;8.73;;;;;;;24.27;26.69;101906.56;5014627;28;20113;-79
2021/05/02 10:30:53;;;;;;;15.75;8.65;;;;;;;23.70;27.08;101917.69;5013093;28;20022;-92
2021/05/02 10:33:39;;;;;;;18.00;9.20;;;;;;;23.89;27.37;101910.44;5029986;28;20025;-80
2021/05/02 10:36:11;;;;;;;14.90;8.32;;;;;;;24.07;27.49;101912.28;5046903;28;20103;-92
2021/05/02 10:38:51;;;;;;;11.20;9.15;;;;;;;24.14;27.29;101916.38;5034217;28;20419;-82
2021/05/02 10:41:35;;;;;;;12.50;8.70;;;;;;;24.23;27.56;101919.66;5036486;28;20028;-79
2021/05/02 10:44:03;;;;;;;12.32;8.55;;;;;;;23.91;27.36;101908.06;5036283;28;20051;-79
2021/05/02 10:46:41;;;;;;;10.55;8.65;;;;;;;23.89;27.26;101910.44;5035786;28;20044;-91
2021/05/02 10:49:11;;;;;;;46.35;12.50;;;;;;;23.86;27.28;101908.38;5035754;28;20025;-80
2021/05/02 10:51:37;;;;;;;14.18;9.48;;;;;;;23.89;27.79;101918.78;5035268;28;20499;-80
2021/05/02 10:54:09;;;;;;;11.23;8.25;;;;;;;23.67;27.76;101920.44;5035145;28;20526;-79
2021/05/02 10:56:46;;;;;;;12.18;8.73;;;;;;;23.73;27.95;101921.75;5035801;28;20030;-79
2021/05/02 10:59:12;;;;;;;10.75;7.50;;;;;;;23.70;27.87;101926.06;5035473;28;20060;-80
2021/05/02 11:01:38;;;;;;;8.93;7.57;;;;;;;23.49;27.96;101923.69;5034506;28;20476;-80
2021/05/02 11:04:05;;;;;;;13.32;9.38;;;;;;;23.47;27.81;101919.69;5035282;28;20079;-80
2021/05/02 11:06:41;;;;;;;10.55;7.88;;;;;;;23.71;27.43;101921.28;5033992;28;20034;-80
2021/05/02 11:09:17;;;;;;;14.88;9.30;;;;;;;23.70;27.31;101911.31;5034342;28;20091;-79
2021/05/02 11:11:47;;;;;;;9.23;7.00;;;;;;;23.65;27.12;101909.63;5033868;28;20108;-80
2021/05/02 11:14:14;;;;;;;8.23;7.17;;;;;;;23.67;26.82;101904.50;5033246;28;20056;-79
2021/05/02 11:16:54;;;;;;;14.45;9.20;;;;;;;23.51;26.99;101910.22;5033683;28;20262;-86
2021/05/02 11:19:20;;;;;;;8.93;7.70;;;;;;;23.41;27.09;101908.03;5033987;28;20486;-87